createdAt,value
2018-10-06T00:00:51.971Z,7.41
2018-10-06T00:01:52.007Z,7.88
2018-10-06T00:02:52.052Z,8.17
2018-10-06T00:03:52.084Z,7.88
2018-10-06T00:04:52.123Z,7.79
2018-10-06T00:05:52.199Z,7.98
2018-10-06T00:06:52.203Z,7.89
2018-10-06T00:07:52.242Z,8.07
2018-10-06T00:08:52.277Z,8.45
2018-10-06T00:09:52.316Z,9.21
2018-10-06T00:10:52.354Z,9.21
2018-10-06T00:11:52.400Z,9.31
2018-10-06T00:12:52.430Z,9.12
2018-10-06T00:13:52.470Z,8.73
2018-10-06T00:14:52.507Z,8.36
2018-10-06T00:15:52.547Z,8.54
2018-10-06T00:16:52.586Z,8.54
2018-10-06T00:17:52.623Z,8.83
2018-10-06T00:18:52.663Z,8.54
2018-10-06T00:19:52.699Z,8.26
2018-10-06T00:20:52.739Z,7.79
2018-10-06T00:21:52.778Z,7.88
2018-10-06T00:22:52.815Z,8.07
2018-10-06T00:23:52.853Z,8.45
2018-10-06T00:24:52.893Z,8.54
2018-10-06T00:25:52.929Z,7.98
2018-10-06T00:26:52.969Z,7.88
2018-10-06T00:27:53.006Z,7.88
2018-10-06T00:28:53.044Z,8.26
2018-10-06T00:29:53.083Z,8.45
2018-10-06T00:30:53.124Z,9.40
2018-10-06T00:31:53.158Z,9.69
2018-10-06T00:32:53.197Z,10.44
2018-10-06T00:33:53.235Z,11.02
2018-10-06T00:34:53.275Z,11.58
2018-10-06T00:35:53.312Z,11.58
2018-10-06T00:36:53.353Z,11.30
2018-10-06T00:37:53.389Z,10.83
2018-10-06T00:38:53.428Z,9.97
2018-10-06T00:39:53.466Z,9.12
2018-10-06T00:40:53.505Z,8.17
2018-10-06T00:41:53.544Z,7.69
2018-10-06T00:42:53.590Z,7.88
2018-10-06T00:43:53.621Z,7.50
2018-10-06T00:44:53.658Z,8.36
2018-10-06T00:45:53.695Z,8.54
2018-10-06T00:46:53.743Z,9.31
2018-10-06T00:47:53.775Z,10.16
2018-10-06T00:48:53.812Z,10.64
2018-10-06T00:49:53.855Z,10.73
2018-10-06T00:50:53.889Z,11.02
2018-10-06T00:51:53.929Z,11.21
2018-10-06T00:52:53.967Z,11.49
2018-10-06T00:53:54.004Z,11.30
2018-10-06T00:54:54.042Z,11.58
2018-10-06T00:55:54.086Z,11.02
2018-10-06T00:56:54.127Z,9.97
2018-10-06T00:57:54.155Z,8.92
2018-10-06T00:58:54.193Z,8.64
2018-10-06T00:59:54.232Z,7.69
2018-10-06T01:00:54.270Z,6.74
2018-10-06T01:01:54.309Z,6.36
2018-10-06T01:02:54.348Z,5.88
2018-10-06T01:03:54.385Z,5.98
2018-10-06T01:04:54.424Z,6.17
2018-10-06T01:05:54.469Z,5.98
2018-10-06T01:06:54.500Z,6.46
2018-10-06T01:07:54.538Z,6.27
2018-10-06T01:08:54.576Z,5.88
2018-10-06T01:09:54.615Z,5.51
2018-10-06T01:10:54.661Z,5.32
2018-10-06T01:11:54.690Z,5.98
2018-10-06T01:12:54.734Z,6.17
2018-10-06T01:13:54.769Z,7.03
2018-10-06T01:14:54.811Z,6.83
2018-10-06T01:15:54.843Z,6.17
2018-10-06T01:16:54.892Z,6.27
2018-10-06T01:17:54.922Z,6.27
2018-10-06T01:18:54.959Z,6.83
2018-10-06T01:19:55.013Z,7.21
2018-10-06T01:20:55.041Z,7.68
2018-10-06T01:21:55.077Z,7.88
2018-10-06T01:22:55.113Z,8.26
2018-10-06T01:23:55.155Z,8.64
2018-10-06T01:24:55.190Z,8.35
2018-10-06T01:25:55.228Z,7.78
2018-10-06T01:26:55.277Z,7.50
2018-10-06T01:27:55.305Z,7.21
2018-10-06T01:28:55.341Z,6.83
2018-10-06T01:29:55.380Z,6.83
2018-10-06T01:30:55.420Z,7.03
2018-10-06T01:31:55.458Z,7.31
2018-10-06T01:32:55.832Z,7.31
2018-10-06T01:33:55.532Z,7.40
2018-10-06T01:34:55.571Z,7.78
2018-10-06T01:35:55.607Z,7.68
2018-10-06T01:36:55.648Z,7.68
2018-10-06T01:37:55.723Z,7.12
2018-10-06T01:38:55.725Z,7.31
2018-10-06T01:39:55.765Z,7.40
2018-10-06T01:40:55.801Z,7.50
2018-10-06T01:41:55.847Z,7.88
2018-10-06T01:42:55.877Z,8.83
2018-10-06T01:43:55.914Z,9.30
2018-10-06T01:44:55.953Z,9.68
2018-10-06T01:45:55.991Z,10.44
2018-10-06T01:46:56.031Z,11.01
2018-10-06T01:47:56.071Z,11.01
2018-10-06T01:48:56.105Z,10.44
2018-10-06T01:49:56.188Z,10.35
2018-10-06T01:50:56.231Z,10.63
2018-10-06T01:51:56.228Z,10.63
2018-10-06T01:52:56.260Z,10.25
2018-10-06T01:53:56.301Z,10.72
2018-10-06T01:54:56.335Z,11.20
2018-10-06T01:55:56.376Z,11.58
2018-10-06T01:56:56.411Z,11.68
2018-10-06T01:57:56.450Z,10.44
2018-10-06T01:58:56.491Z,9.78
2018-10-06T01:59:56.527Z,9.78
2018-10-06T02:00:56.563Z,9.78
2018-10-06T02:01:56.602Z,10.16
2018-10-06T02:02:56.641Z,9.30
2018-10-06T02:03:56.676Z,9.01
2018-10-06T02:04:56.715Z,8.73
2018-10-06T02:05:56.754Z,9.49
2018-10-06T02:06:56.932Z,9.49
2018-10-06T02:07:56.828Z,7.97
2018-10-06T02:08:56.874Z,7.78
2018-10-06T02:09:56.905Z,7.78
2018-10-06T02:10:56.944Z,7.21
2018-10-06T02:11:56.982Z,5.98
2018-10-06T02:12:57.021Z,5.79
2018-10-06T02:13:57.058Z,5.88
2018-10-06T02:14:57.106Z,5.41
2018-10-06T02:15:57.133Z,5.32
2018-10-06T02:16:57.172Z,5.51
2018-10-06T02:17:57.220Z,5.03
2018-10-06T02:18:57.250Z,4.55
2018-10-06T02:19:57.288Z,4.27
2018-10-06T02:20:57.325Z,4.08
2018-10-06T02:21:57.366Z,3.99
2018-10-06T02:22:57.406Z,3.99
2018-10-06T02:23:57.506Z,4.36
2018-10-06T02:24:57.478Z,4.84
2018-10-06T02:25:57.517Z,5.41
2018-10-06T02:26:57.559Z,5.79
2018-10-06T02:27:57.591Z,6.07
2018-10-06T02:28:57.631Z,5.79
2018-10-06T02:29:57.675Z,5.69
2018-10-06T02:30:57.709Z,5.60
2018-10-06T02:31:57.756Z,5.69
2018-10-06T02:32:57.784Z,5.98
2018-10-06T02:33:57.824Z,5.51
2018-10-06T02:34:57.858Z,5.51
2018-10-06T02:35:57.903Z,5.51
2018-10-06T02:36:58.090Z,5.51
2018-10-06T02:37:57.970Z,5.69
2018-10-06T02:38:58.011Z,5.69
2018-10-06T02:39:58.047Z,6.07
2018-10-06T02:40:58.086Z,7.03
2018-10-06T02:41:58.130Z,7.21
2018-10-06T02:42:58.162Z,7.21
2018-10-06T02:43:58.201Z,7.59
2018-10-06T02:44:58.237Z,7.50
2018-10-06T02:45:58.285Z,7.59
2018-10-06T02:46:58.315Z,7.21
2018-10-06T02:47:58.353Z,6.93
2018-10-06T02:48:58.390Z,7.12
2018-10-06T02:49:58.489Z,7.03
2018-10-06T02:50:58.466Z,6.64
2018-10-06T02:51:58.505Z,5.98
2018-10-06T02:52:58.541Z,6.17
2018-10-06T02:53:58.591Z,5.98
2018-10-06T02:54:58.618Z,5.98
2018-10-06T02:55:58.659Z,6.07
2018-10-06T02:56:58.698Z,5.98
2018-10-06T02:57:58.735Z,5.88
2018-10-06T02:58:58.777Z,5.88
2018-10-06T02:59:58.818Z,5.60
2018-10-06T03:00:58.851Z,5.22
2018-10-06T03:01:58.888Z,4.93
2018-10-06T03:02:58.923Z,5.51
2018-10-06T03:03:58.958Z,5.60
2018-10-06T03:04:58.997Z,5.88
2018-10-06T03:05:59.048Z,6.16
2018-10-06T03:06:59.074Z,7.12
2018-10-06T03:07:59.112Z,7.12
2018-10-06T03:08:59.158Z,7.21
2018-10-06T03:09:59.196Z,7.68
2018-10-06T03:10:59.226Z,7.50
2018-10-06T03:11:59.264Z,7.50
2018-10-06T03:12:59.302Z,7.12
2018-10-06T03:13:59.340Z,6.73
2018-10-06T03:14:59.378Z,5.98
2018-10-06T03:15:59.416Z,5.69
2018-10-06T03:16:59.452Z,5.41
2018-10-06T03:17:59.492Z,5.60
2018-10-06T03:18:59.536Z,6.07
2018-10-06T03:19:59.568Z,6.16
2018-10-06T03:20:59.607Z,5.98
2018-10-06T03:21:59.644Z,5.88
2018-10-06T03:22:59.682Z,5.79
2018-10-06T03:23:59.721Z,6.26
2018-10-06T03:24:59.758Z,6.92
2018-10-06T03:25:59.797Z,6.92
2018-10-06T03:26:59.832Z,7.50
2018-10-06T03:27:59.871Z,7.21
2018-10-06T03:28:59.908Z,6.92
2018-10-06T03:29:59.948Z,7.12
2018-10-06T03:30:59.991Z,6.64
2018-10-06T03:32:00.034Z,6.64
2018-10-06T03:33:00.060Z,7.12
2018-10-06T03:34:00.099Z,7.02
2018-10-06T03:35:00.245Z,6.92
2018-10-06T03:36:00.173Z,7.12
2018-10-06T03:37:00.210Z,7.59
2018-10-06T03:38:00.250Z,8.16
2018-10-06T03:39:00.287Z,8.54
2018-10-06T03:40:00.328Z,8.63
2018-10-06T03:41:00.373Z,7.78
2018-10-06T03:42:00.404Z,7.68
2018-10-06T03:43:00.439Z,7.68
2018-10-06T03:44:00.477Z,7.50
2018-10-06T03:45:00.513Z,7.87
2018-10-06T03:46:00.553Z,7.78
2018-10-06T03:47:00.592Z,7.97
2018-10-06T03:48:00.627Z,7.50
2018-10-06T03:49:00.665Z,7.31
2018-10-06T03:50:00.704Z,7.31
2018-10-06T03:51:00.741Z,7.68
2018-10-06T03:52:00.781Z,8.16
2018-10-06T03:53:00.821Z,8.63
2018-10-06T03:54:00.926Z,8.63
2018-10-06T03:55:00.893Z,8.73
2018-10-06T03:56:00.929Z,8.44
2018-10-06T03:57:00.968Z,7.78
2018-10-06T03:58:01.006Z,7.59
2018-10-06T03:59:01.045Z,6.92
2018-10-06T04:00:01.082Z,7.02
2018-10-06T04:01:01.119Z,7.02
2018-10-06T04:02:01.157Z,7.21
2018-10-06T04:03:01.195Z,7.68
2018-10-06T04:04:01.371Z,7.68
2018-10-06T04:05:01.275Z,7.87
2018-10-06T04:06:01.320Z,8.06
2018-10-06T04:07:01.346Z,7.97
2018-10-06T04:08:01.384Z,7.68
2018-10-06T04:09:01.421Z,7.02
2018-10-06T04:10:01.459Z,7.02
2018-10-06T04:11:01.508Z,7.02
2018-10-06T04:12:01.536Z,7.02
2018-10-06T04:13:01.573Z,7.31
2018-10-06T04:14:01.612Z,7.78
2018-10-06T04:15:01.647Z,7.78
2018-10-06T04:16:01.685Z,7.87
2018-10-06T04:17:01.728Z,8.25
2018-10-06T04:18:01.768Z,8.54
2018-10-06T04:19:01.805Z,8.63
2018-10-06T04:20:01.844Z,8.54
2018-10-06T04:21:01.874Z,8.63
2018-10-06T04:22:01.912Z,8.54
2018-10-06T04:23:01.953Z,8.44
2018-10-06T04:24:01.988Z,8.25
2018-10-06T04:25:02.032Z,8.44
2018-10-06T04:26:02.067Z,8.54
2018-10-06T04:27:02.101Z,8.82
2018-10-06T04:28:02.139Z,8.63
2018-10-06T04:29:02.182Z,8.63
2018-10-06T04:30:02.215Z,8.63
2018-10-06T04:31:02.254Z,9.20
2018-10-06T04:32:02.291Z,8.92
2018-10-06T04:33:02.330Z,9.39
2018-10-06T04:34:02.369Z,9.67
2018-10-06T04:35:02.412Z,10.25
2018-10-06T04:36:02.442Z,10.44
2018-10-06T04:37:02.480Z,10.34
2018-10-06T04:38:02.519Z,11.00
2018-10-06T04:39:02.554Z,11.19
2018-10-06T04:40:02.592Z,11.29
2018-10-06T04:41:02.634Z,11.38
2018-10-06T04:42:02.666Z,11.57
2018-10-06T04:43:02.704Z,10.72
2018-10-06T04:44:02.745Z,10.34
2018-10-06T04:45:02.791Z,9.86
2018-10-06T04:46:02.826Z,9.30
2018-10-06T04:47:02.889Z,9.30
2018-10-06T04:48:02.902Z,9.39
2018-10-06T04:49:02.933Z,10.05
2018-10-06T04:50:02.972Z,9.77
2018-10-06T04:51:03.009Z,9.86
2018-10-06T04:52:03.054Z,9.39
2018-10-06T04:53:03.088Z,9.20
2018-10-06T04:54:03.120Z,9.96
2018-10-06T04:55:03.167Z,9.86
2018-10-06T04:56:03.194Z,10.05
2018-10-06T04:57:03.233Z,9.77
2018-10-06T04:58:03.270Z,10.15
2018-10-06T04:59:03.309Z,9.01
2018-10-06T05:00:03.346Z,9.30
2018-10-06T05:01:03.386Z,9.01
2018-10-06T05:02:03.423Z,9.11
2018-10-06T05:03:03.459Z,8.54
2018-10-06T05:04:03.498Z,8.25
2018-10-06T05:05:03.536Z,7.97
2018-10-06T05:06:03.573Z,7.31
2018-10-06T05:07:03.609Z,7.02
2018-10-06T05:08:03.648Z,6.92
2018-10-06T05:09:03.687Z,6.64
2018-10-06T05:10:03.724Z,6.83
2018-10-06T05:11:03.762Z,7.12
2018-10-06T05:12:03.839Z,7.21
2018-10-06T05:13:03.834Z,7.31
2018-10-06T05:14:03.874Z,7.50
2018-10-06T05:15:03.913Z,7.59
2018-10-06T05:16:03.947Z,7.97
2018-10-06T05:17:04.002Z,8.44
2018-10-06T05:18:04.024Z,8.54
2018-10-06T05:19:04.062Z,8.63
2018-10-06T05:20:04.100Z,9.11
2018-10-06T05:21:04.139Z,9.20
2018-10-06T05:22:04.175Z,9.11
2018-10-06T05:23:04.214Z,9.01
2018-10-06T05:24:04.250Z,9.20
2018-10-06T05:25:04.288Z,7.97
2018-10-06T05:26:04.328Z,7.59
2018-10-06T05:27:04.363Z,7.02
2018-10-06T05:28:04.402Z,6.35
2018-10-06T05:29:04.440Z,6.16
2018-10-06T05:30:04.483Z,6.16
2018-10-06T05:31:04.516Z,6.16
2018-10-06T05:32:04.553Z,6.26
2018-10-06T05:33:04.593Z,6.35
2018-10-06T05:34:04.686Z,6.16
2018-10-06T05:35:04.674Z,6.26
2018-10-06T05:36:04.703Z,6.26
2018-10-06T05:37:04.745Z,5.79
2018-10-06T05:38:04.781Z,6.26
2018-10-06T05:39:04.820Z,6.35
2018-10-06T05:40:04.863Z,6.64
2018-10-06T05:41:04.892Z,6.64
2018-10-06T05:42:04.931Z,7.02
2018-10-06T05:43:04.969Z,6.73
2018-10-06T05:44:05.007Z,7.12
2018-10-06T05:45:05.169Z,7.78
2018-10-06T05:46:05.096Z,7.87
2018-10-06T05:47:05.129Z,8.73
2018-10-06T05:48:05.156Z,9.01
2018-10-06T05:49:05.194Z,9.11
2018-10-06T05:50:05.235Z,9.48
2018-10-06T05:51:05.305Z,9.77
2018-10-06T05:52:05.312Z,10.05
2018-10-06T05:53:05.388Z,9.86
2018-10-06T05:54:05.487Z,9.30
2018-10-06T05:55:05.423Z,9.11
2018-10-06T05:56:05.462Z,9.01
2018-10-06T05:57:05.499Z,8.54
2018-10-06T05:58:05.536Z,8.54
2018-10-06T05:59:05.592Z,7.87
2018-10-06T06:00:05.610Z,7.78
2018-10-06T06:01:05.658Z,7.68
2018-10-06T06:02:05.687Z,7.87
2018-10-06T06:03:05.725Z,7.78
2018-10-06T06:04:05.762Z,7.78
2018-10-06T06:05:05.800Z,7.87
2018-10-06T06:06:05.839Z,7.78
2018-10-06T06:07:05.877Z,7.78
2018-10-06T06:08:05.915Z,7.87
2018-10-06T06:09:05.952Z,7.50
2018-10-06T06:10:05.989Z,7.88
2018-10-06T06:11:06.032Z,7.40
2018-10-06T06:12:06.067Z,6.93
2018-10-06T06:13:06.103Z,7.21
2018-10-06T06:14:06.142Z,6.92
2018-10-06T06:15:06.187Z,6.83
2018-10-06T06:16:06.216Z,7.21
2018-10-06T06:17:06.254Z,7.21
2018-10-06T06:18:06.290Z,7.68
2018-10-06T06:19:06.329Z,7.59
2018-10-06T06:20:06.375Z,7.88
2018-10-06T06:21:06.406Z,7.97
2018-10-06T06:22:06.445Z,8.54
2018-10-06T06:23:06.482Z,8.64
2018-10-06T06:24:06.528Z,9.20
2018-10-06T06:25:06.557Z,9.11
2018-10-06T06:26:06.595Z,9.39
2018-10-06T06:27:06.633Z,9.68
2018-10-06T06:28:06.674Z,9.97
2018-10-06T06:29:06.715Z,10.16
2018-10-06T06:30:06.763Z,10.16
2018-10-06T06:31:06.808Z,10.25
2018-10-06T06:32:06.863Z,11.30
2018-10-06T06:33:06.864Z,10.83
2018-10-06T06:34:06.900Z,11.21
2018-10-06T06:35:06.936Z,11.58
2018-10-06T06:36:06.985Z,12.44
2018-10-06T06:37:07.014Z,12.73
2018-10-06T06:38:07.059Z,12.73
2018-10-06T06:39:07.093Z,13.58
2018-10-06T06:40:07.139Z,14.91
2018-10-06T06:41:07.368Z,15.67
2018-10-06T06:42:07.209Z,16.14
2018-10-06T06:43:07.249Z,16.24
2018-10-06T06:44:07.358Z,16.43
2018-10-06T06:45:07.340Z,16.43
2018-10-06T06:46:07.359Z,16.52
2018-10-06T06:47:07.396Z,16.62
2018-10-06T06:48:07.433Z,16.33
2018-10-06T06:49:07.478Z,16.14
2018-10-06T06:50:07.513Z,15.58
2018-10-06T06:51:07.558Z,15.58
2018-10-06T06:52:07.586Z,15.10
2018-10-06T06:53:07.864Z,14.81
2018-10-06T06:54:07.663Z,15.00
2018-10-06T06:55:07.815Z,15.10
2018-10-06T06:56:07.743Z,15.10
2018-10-06T06:57:07.777Z,13.96
2018-10-06T06:58:07.817Z,14.06
2018-10-06T06:59:07.885Z,13.68
2018-10-06T07:00:07.953Z,13.68
2018-10-06T07:01:07.932Z,13.49
2018-10-06T07:02:07.970Z,13.59
2018-10-06T07:03:08.009Z,14.15
2018-10-06T07:04:08.046Z,14.63
2018-10-06T07:05:08.098Z,14.92
2018-10-06T07:06:08.132Z,15.01
2018-10-06T07:07:08.163Z,15.77
2018-10-06T07:08:08.203Z,15.78
2018-10-06T07:09:08.245Z,16.25
2018-10-06T07:10:08.278Z,16.35
2018-10-06T07:11:08.317Z,16.92
2018-10-06T07:12:08.355Z,17.30
2018-10-06T07:13:08.479Z,17.87
2018-10-06T07:14:08.445Z,18.73
2018-10-06T07:15:08.476Z,20.34
2018-10-06T07:16:08.596Z,20.53
2018-10-06T07:17:08.548Z,20.34
2018-10-06T07:18:08.593Z,21.31
2018-10-06T07:19:08.624Z,21.31
2018-10-06T07:20:08.663Z,20.83
2018-10-06T07:21:08.714Z,20.36
2018-10-06T07:22:08.741Z,20.45
2018-10-06T07:23:08.788Z,20.64
2018-10-06T07:24:08.820Z,20.36
2018-10-06T07:25:08.858Z,21.31
2018-10-06T07:26:08.896Z,21.21
2018-10-06T07:27:08.935Z,21.50
2018-10-06T07:28:08.974Z,21.50
2018-10-06T07:29:09.017Z,21.31
2018-10-06T07:30:09.055Z,21.12
2018-10-06T07:31:09.091Z,21.97
2018-10-06T07:32:09.130Z,21.31
2018-10-06T07:33:09.170Z,21.79
2018-10-06T07:34:09.207Z,22.65
2018-10-06T07:35:09.247Z,23.60
2018-10-06T07:36:09.286Z,23.60
2018-10-06T07:37:09.341Z,23.79
2018-10-06T07:38:09.364Z,23.41
2018-10-06T07:39:09.449Z,23.32
2018-10-06T07:40:09.451Z,23.79
2018-10-06T07:41:09.484Z,24.65
2018-10-06T07:42:09.539Z,24.93
2018-10-06T07:43:09.612Z,25.41
2018-10-06T07:44:09.599Z,25.89
2018-10-06T07:45:09.652Z,26.65
2018-10-06T07:46:09.679Z,26.93
2018-10-06T07:47:09.718Z,26.46
2018-10-06T07:48:09.760Z,26.46
2018-10-06T07:49:09.796Z,27.12
2018-10-06T07:50:09.840Z,27.12
2018-10-06T07:51:09.882Z,27.12
2018-10-06T07:52:09.915Z,26.55
2018-10-06T07:53:10.048Z,27.42
2018-10-06T07:54:09.995Z,29.04
2018-10-06T07:55:10.042Z,30.94
2018-10-06T07:56:10.076Z,31.42
2018-10-06T07:57:10.111Z,31.80
2018-10-06T07:58:10.154Z,33.61
2018-10-06T07:59:10.195Z,33.90
2018-10-06T08:00:10.233Z,34.47
2018-10-06T08:01:10.276Z,32.85
2018-10-06T08:02:10.311Z,34.66
2018-10-06T08:03:10.349Z,35.52
2018-10-06T08:04:10.386Z,35.99
2018-10-06T08:05:10.431Z,36.37
2018-10-06T08:06:10.467Z,36.20
2018-10-06T08:07:10.508Z,35.72
2018-10-06T08:08:10.548Z,35.63
2018-10-06T08:09:10.588Z,35.53
2018-10-06T08:10:10.628Z,35.53
2018-10-06T08:11:10.667Z,34.30
2018-10-06T08:12:10.748Z,33.06
2018-10-06T08:13:10.744Z,33.53
2018-10-06T08:14:10.785Z,34.48
2018-10-06T08:15:10.824Z,34.20
2018-10-06T08:16:10.864Z,32.48
2018-10-06T08:17:10.904Z,31.24
2018-10-06T08:18:10.942Z,31.63
2018-10-06T08:19:10.982Z,30.79
2018-10-06T08:20:11.022Z,30.88
2018-10-06T08:21:11.064Z,31.45
2018-10-06T08:22:11.108Z,30.60
2018-10-06T08:23:11.146Z,30.79
2018-10-06T08:24:11.184Z,31.36
2018-10-06T08:25:11.221Z,31.16
2018-10-06T08:26:11.261Z,31.93
2018-10-06T08:27:11.301Z,31.26
2018-10-06T08:28:11.340Z,31.16
2018-10-06T08:29:11.382Z,29.83
2018-10-06T08:30:11.439Z,31.26
2018-10-06T08:31:11.462Z,32.21
2018-10-06T08:32:11.505Z,31.37
2018-10-06T08:33:11.543Z,32.61
2018-10-06T08:34:11.590Z,33.47
2018-10-06T08:35:11.622Z,33.09
2018-10-06T08:36:11.669Z,33.57
2018-10-06T08:37:11.709Z,33.57
2018-10-06T08:38:11.745Z,33.28
2018-10-06T08:39:11.783Z,31.66
2018-10-06T08:40:11.822Z,31.09
2018-10-06T08:41:11.860Z,32.52
2018-10-06T08:42:11.903Z,32.81
2018-10-06T08:43:11.943Z,32.61
2018-10-06T08:44:12.036Z,33.49
2018-10-06T08:45:12.024Z,35.78
2018-10-06T08:46:12.064Z,35.39
2018-10-06T08:47:12.106Z,35.97
2018-10-06T08:48:12.144Z,35.97
2018-10-06T08:49:12.189Z,35.87
2018-10-06T08:50:12.227Z,36.44
2018-10-06T08:51:12.274Z,38.35
2018-10-06T08:52:12.306Z,37.04
2018-10-06T08:53:12.346Z,37.13
2018-10-06T08:54:12.387Z,37.80
2018-10-06T08:55:12.435Z,37.23
2018-10-06T08:56:12.747Z,36.27
2018-10-06T08:57:12.510Z,38.95
2018-10-06T08:58:12.548Z,40.09
2018-10-06T08:59:12.604Z,39.64
2018-10-06T09:00:12.631Z,41.74
2018-10-06T09:01:12.685Z,42.50
2018-10-06T09:02:12.714Z,39.54
2018-10-06T09:03:12.753Z,40.59
2018-10-06T09:04:12.806Z,39.44
2018-10-06T09:05:12.841Z,42.31
2018-10-06T09:06:12.976Z,44.12
2018-10-06T09:07:12.923Z,43.95
2018-10-06T09:08:12.956Z,43.17
2018-10-06T09:09:13.007Z,44.89
2018-10-06T09:10:13.047Z,47.01
2018-10-06T09:11:13.079Z,47.49
2018-10-06T09:12:13.132Z,49.11
2018-10-06T09:13:13.168Z,50.55
2018-10-06T09:14:13.200Z,51.50
2018-10-06T09:15:13.246Z,52.17
2018-10-06T09:16:13.299Z,53.99
2018-10-06T09:17:13.324Z,53.53
2018-10-06T09:18:13.374Z,52.20
2018-10-06T09:19:13.406Z,54.11
2018-10-06T09:20:13.490Z,55.64
2018-10-06T09:21:13.486Z,57.93
2018-10-06T09:22:13.529Z,57.48
2018-10-06T09:23:13.570Z,57.58
2018-10-06T09:24:13.617Z,60.26
2018-10-06T09:25:13.653Z,58.06
2018-10-06T09:26:13.702Z,59.49
2018-10-06T09:27:13.738Z,56.62
2018-10-06T09:28:13.819Z,54.33
2018-10-06T09:29:13.817Z,56.62
2018-10-06T09:30:13.865Z,58.54
2018-10-06T09:31:13.909Z,56.75
2018-10-06T09:32:13.940Z,57.90
2018-10-06T09:33:13.992Z,61.25
2018-10-06T09:34:14.023Z,59.05
2018-10-06T09:35:14.070Z,61.82
2018-10-06T09:36:14.137Z,59.05
2018-10-06T09:37:14.149Z,62.81
2018-10-06T09:38:14.191Z,64.25
2018-10-06T09:39:14.238Z,66.16
2018-10-06T09:40:14.278Z,65.11
2018-10-06T09:41:14.315Z,63.96
2018-10-06T09:42:14.549Z,65.20
2018-10-06T09:43:14.401Z,69.99
2018-10-06T09:44:14.449Z,68.01
2018-10-06T09:45:14.483Z,70.60
2018-10-06T09:46:14.525Z,69.74
2018-10-06T09:47:14.566Z,70.41
2018-10-06T09:48:14.678Z,69.17
2018-10-06T09:49:14.649Z,70.21
2018-10-06T09:50:14.699Z,69.17
2018-10-06T09:51:14.743Z,70.21
2018-10-06T09:52:14.784Z,70.31
2018-10-06T09:53:14.829Z,70.31
2018-10-06T09:54:14.862Z,71.11
2018-10-06T09:55:14.906Z,73.13
2018-10-06T09:56:14.942Z,73.61
2018-10-06T09:57:14.988Z,73.99
2018-10-06T09:58:15.037Z,75.43
2018-10-06T09:59:15.078Z,74.98
2018-10-06T10:00:15.113Z,76.32
2018-10-06T10:01:15.156Z,75.65
2018-10-06T10:02:15.197Z,75.18
2018-10-06T10:03:15.239Z,75.65
2018-10-06T10:04:15.282Z,77.58
2018-10-06T10:05:15.360Z,78.25
2018-10-06T10:06:15.371Z,79.72
2018-10-06T10:07:15.418Z,78.09
2018-10-06T10:08:15.459Z,78.77
2018-10-06T10:09:15.499Z,80.30
2018-10-06T10:10:15.553Z,81.07
2018-10-06T10:11:15.582Z,81.54
2018-10-06T10:12:15.624Z,82.54
2018-10-06T10:13:15.672Z,82.64
2018-10-06T10:14:15.715Z,84.08
2018-10-06T10:15:15.800Z,83.51
2018-10-06T10:16:15.795Z,83.60
2018-10-06T10:17:15.957Z,84.75
2018-10-06T10:18:15.960Z,84.37
2018-10-06T10:19:15.920Z,83.64
2018-10-06T10:20:15.967Z,86.33
2018-10-06T10:21:16.004Z,85.85
2018-10-06T10:22:16.110Z,86.81
2018-10-06T10:23:16.144Z,86.33
2018-10-06T10:24:16.135Z,86.24
2018-10-06T10:25:16.179Z,86.62
2018-10-06T10:26:16.225Z,86.33
2018-10-06T10:27:16.267Z,86.52
2018-10-06T10:28:16.311Z,87.39
2018-10-06T10:29:16.347Z,87.19
2018-10-06T10:30:16.391Z,86.52
2018-10-06T10:31:16.436Z,87.29
2018-10-06T10:32:16.483Z,88.01
2018-10-06T10:33:16.520Z,87.87
2018-10-06T10:34:16.568Z,87.62
2018-10-06T10:35:16.606Z,88.39
2018-10-06T10:36:16.647Z,87.72
2018-10-06T10:37:16.758Z,87.62
2018-10-06T10:38:16.738Z,87.72
2018-10-06T10:39:16.900Z,86.95
2018-10-06T10:40:16.820Z,88.20
2018-10-06T10:41:16.864Z,87.53
2018-10-06T10:42:16.907Z,88.20
2018-10-06T10:43:17.224Z,88.01
2018-10-06T10:44:17.049Z,88.24
2018-10-06T10:45:17.062Z,89.01
2018-10-06T10:46:17.123Z,88.53
2018-10-06T10:47:17.139Z,89.01
2018-10-06T10:48:17.208Z,87.96
2018-10-06T10:49:17.214Z,88.53
2018-10-06T10:50:17.252Z,87.86
2018-10-06T10:51:17.295Z,87.33
2018-10-06T10:52:17.365Z,88.57
2018-10-06T10:53:17.396Z,89.54
2018-10-06T10:54:17.427Z,90.02
2018-10-06T10:55:17.471Z,90.21
2018-10-06T10:56:17.517Z,90.98
2018-10-06T10:57:17.555Z,90.02
2018-10-06T10:58:17.598Z,91.17
2018-10-06T10:59:17.749Z,89.92
2018-10-06T11:00:17.801Z,91.46
2018-10-06T11:01:17.786Z,91.27
2018-10-06T11:02:17.775Z,91.66
2018-10-06T11:03:17.818Z,92.66
2018-10-06T11:04:17.861Z,90.55
2018-10-06T11:05:17.913Z,91.51
2018-10-06T11:06:17.950Z,91.41
2018-10-06T11:07:17.999Z,92.66
2018-10-06T11:08:18.037Z,92.57
2018-10-06T11:09:18.096Z,91.89
2018-10-06T11:10:18.120Z,92.57
2018-10-06T11:11:18.207Z,92.95
2018-10-06T11:12:18.212Z,92.95
2018-10-06T11:13:18.255Z,93.05
2018-10-06T11:14:18.294Z,92.85
2018-10-06T11:15:18.338Z,92.95
2018-10-06T11:16:18.384Z,93.19
2018-10-06T11:17:18.529Z,91.75
2018-10-06T11:18:18.469Z,93.19
2018-10-06T11:19:18.514Z,93.77
2018-10-06T11:20:18.558Z,93.29
2018-10-06T11:21:18.608Z,93.96
2018-10-06T11:22:18.643Z,93.77
2018-10-06T11:23:18.687Z,93.87
2018-10-06T11:24:18.733Z,94.15
2018-10-06T11:25:18.798Z,94.25
2018-10-06T11:26:18.818Z,94.06
2018-10-06T11:27:18.863Z,94.20
2018-10-06T11:28:18.904Z,94.20
2018-10-06T11:29:18.956Z,94.29
2018-10-06T11:30:18.998Z,94.29
2018-10-06T11:31:19.039Z,94.68
2018-10-06T11:32:19.082Z,95.26
2018-10-06T11:33:19.124Z,96.80
2018-10-06T11:34:19.171Z,95.11
2018-10-06T11:35:19.319Z,95.89
2018-10-06T11:36:19.256Z,95.31
2018-10-06T11:37:19.360Z,95.79
2018-10-06T11:38:19.494Z,96.46
2018-10-06T11:39:19.398Z,96.08
2018-10-06T11:40:19.431Z,95.89
2018-10-06T11:41:19.482Z,96.27
2018-10-06T11:42:19.529Z,96.08
2018-10-06T11:43:19.569Z,96.32
2018-10-06T11:44:19.631Z,95.74
2018-10-06T11:45:19.653Z,96.32
2018-10-06T11:46:19.697Z,96.12
2018-10-06T11:47:19.740Z,96.70
2018-10-06T11:48:19.783Z,97.09
2018-10-06T11:49:19.832Z,96.89
2018-10-06T11:50:19.922Z,96.27
2018-10-06T11:51:19.917Z,96.36
2018-10-06T11:52:19.962Z,96.94
2018-10-06T11:53:20.007Z,96.08
2018-10-06T11:54:20.048Z,96.94
2018-10-06T11:55:20.094Z,96.75
2018-10-06T11:56:20.137Z,96.27
2018-10-06T11:57:20.183Z,96.36
2018-10-06T11:58:20.272Z,96.89
2018-10-06T11:59:20.275Z,96.12
2018-10-06T12:00:20.452Z,96.51
2018-10-06T12:01:20.360Z,96.51
2018-10-06T12:02:20.405Z,96.61
2018-10-06T12:03:20.452Z,96.51
2018-10-06T12:04:20.498Z,96.89
2018-10-06T12:05:20.538Z,96.89
2018-10-06T12:06:20.579Z,96.89
2018-10-06T12:07:20.631Z,96.89
2018-10-06T12:08:20.670Z,97.28
2018-10-06T12:09:20.714Z,96.89
2018-10-06T12:10:20.759Z,96.89
2018-10-06T12:11:20.801Z,96.80
2018-10-06T12:12:20.854Z,97.28
2018-10-06T12:13:20.892Z,97.09
2018-10-06T12:14:20.937Z,97.28
2018-10-06T12:15:20.992Z,96.51
2018-10-06T12:16:21.028Z,97.38
2018-10-06T12:17:21.068Z,96.41
2018-10-06T12:18:21.122Z,96.61
2018-10-06T12:19:21.158Z,96.03
2018-10-06T12:20:21.241Z,96.51
2018-10-06T12:21:21.254Z,96.41
2018-10-06T12:22:21.292Z,96.80
2018-10-06T12:23:21.339Z,96.03
2018-10-06T12:24:21.381Z,96.41
2018-10-06T12:25:21.425Z,96.61
2018-10-06T12:26:21.474Z,96.61
2018-10-06T12:27:21.519Z,96.08
2018-10-06T12:28:21.558Z,96.17
2018-10-06T12:29:21.617Z,95.78
2018-10-06T12:30:21.748Z,96.36
2018-10-06T12:31:21.692Z,95.59
2018-10-06T12:32:21.737Z,95.68
2018-10-06T12:33:21.783Z,95.01
2018-10-06T12:34:21.829Z,95.30
2018-10-06T12:35:22.009Z,95.64
2018-10-06T12:36:21.925Z,95.68
2018-10-06T12:37:21.960Z,95.88
2018-10-06T12:38:22.005Z,96.41
2018-10-06T12:39:22.060Z,95.73
2018-10-06T12:40:22.094Z,95.64
2018-10-06T12:41:22.144Z,95.73
2018-10-06T12:42:22.190Z,95.54
2018-10-06T12:43:22.229Z,95.45
2018-10-06T12:44:22.272Z,95.45
2018-10-06T12:45:22.318Z,94.57
2018-10-06T12:46:22.373Z,95.15
2018-10-06T12:47:22.408Z,95.15
2018-10-06T12:48:22.453Z,95.35
2018-10-06T12:49:22.499Z,95.15
2018-10-06T12:50:22.543Z,94.96
2018-10-06T12:51:22.648Z,94.29
2018-10-06T12:52:22.635Z,94.09
2018-10-06T12:53:22.677Z,94.24
2018-10-06T12:54:22.724Z,93.51
2018-10-06T12:55:22.765Z,94.38
2018-10-06T12:56:22.808Z,93.51
2018-10-06T12:57:22.865Z,93.23
2018-10-06T12:58:22.908Z,93.99
2018-10-06T12:59:22.945Z,94.19
2018-10-06T13:00:22.988Z,93.99
2018-10-06T13:01:23.050Z,94.29
2018-10-06T13:02:23.080Z,94.29
2018-10-06T13:03:23.124Z,93.80
2018-10-06T13:04:23.168Z,94.67